Pagrindinis puslapis
METAR-TAF:

METAR-TAF

Oro uostai :

Zanjan, Iranas

platuma: 36-41N, ilguma: 048-29E, Aukštis: 1663 m

Dabartinis oras

Ataskaita buvo paskelbta 1 valandą ir 57 minutes, ne 15:00 UTC
Vėjas 10 kt iš Rytų
Temperatūra 13°C
Drėgmė 26%
Slėgis 1021 hPa
Matomumas 10 km arba daugiau
nėra debesų žemiau 1500 m ir nėra kamuolinių lietaus debesų

METAR: OITZ 241500Z 08010KT CAVOK 13/M06 Q1021 A3015

Laikas: 21:27 (16:57 UTC)


TAF: trūkstamas

Orai ataskaitas ir orų prognozės (METAR, TAF).

turimą stotys yra geltonos ir raudonos taškus žemėlapyje.

Perkelti pele per norėdami pamatyti stoties vardą.

Tada spustelėkite, norėdami matyti oro stebėjimo ir prognozės.

Norėdami pakeisti žemėlapį: spustelėkite ant žalios mygtukų su juodo kryžiaus žemyn,; žalią mygtuką su brūkšneliu, jei norite nutolinti; arba žalių rodyklių gretimoms žemėlapius.


METAR-TAF: